sensor_id;sensor_type;location;lat;lon;timestamp;P1;durP1;ratioP1;P2;durP2;ratioP2
13335;SDS011;6737;51.480;11.962;2023-04-01T00:01:07;3.07;;;1.30;;
13335;SDS011;6737;51.480;11.962;2023-04-01T00:03:33;5.70;;;1.40;;
13335;SDS011;6737;51.480;11.962;2023-04-01T00:06:00;3.07;;;1.20;;
13335;SDS011;6737;51.480;11.962;2023-04-01T00:08:26;3.47;;;1.43;;
13335;SDS011;6737;51.480;11.962;2023-04-01T00:10:52;6.20;;;1.23;;
13335;SDS011;6737;51.480;11.962;2023-04-01T00:13:18;3.53;;;1.23;;
13335;SDS011;6737;51.480;11.962;2023-04-01T00:15:45;5.57;;;1.23;;
13335;SDS011;6737;51.480;11.962;2023-04-01T00:18:11;3.60;;;1.33;;
13335;SDS011;6737;51.480;11.962;2023-04-01T00:20:38;3.60;;;1.10;;
13335;SDS011;6737;51.480;11.962;2023-04-01T00:23:07;3.70;;;1.30;;
13335;SDS011;6737;51.480;11.962;2023-04-01T00:25:33;4.30;;;1.20;;
13335;SDS011;6737;51.480;11.962;2023-04-01T00:27:59;3.73;;;1.30;;
13335;SDS011;6737;51.480;11.962;2023-04-01T00:30:25;3.07;;;1.40;;
13335;SDS011;6737;51.480;11.962;2023-04-01T00:32:51;4.70;;;1.30;;
13335;SDS011;6737;51.480;11.962;2023-04-01T00:35:18;3.60;;;1.13;;
13335;SDS011;6737;51.480;11.962;2023-04-01T00:37:44;4.23;;;1.30;;
13335;SDS011;6737;51.480;11.962;2023-04-01T00:40:22;3.03;;;1.40;;
13335;SDS011;6737;51.480;11.962;2023-04-01T00:42:51;4.17;;;1.40;;
13335;SDS011;6737;51.480;11.962;2023-04-01T00:48:05;3.30;;;1.13;;
13335;SDS011;6737;51.480;11.962;2023-04-01T00:50:36;10.70;;;2.13;;
13335;SDS011;6737;51.480;11.962;2023-04-01T00:53:04;5.20;;;1.40;;
13335;SDS011;6737;51.480;11.962;2023-04-01T00:55:32;2.93;;;1.20;;
13335;SDS011;6737;51.480;11.962;2023-04-01T00:58:03;4.83;;;1.37;;
13335;SDS011;6737;51.480;11.962;2023-04-01T01:00:32;2.40;;;0.93;;
13335;SDS011;6737;51.480;11.962;2023-04-01T01:02:59;2.30;;;1.27;;
13335;SDS011;6737;51.480;11.962;2023-04-01T01:05:29;4.83;;;1.57;;
13335;SDS011;6737;51.480;11.962;2023-04-01T01:10:51;3.23;;;1.30;;
13335;SDS011;6737;51.480;11.962;2023-04-01T01:13:30;5.93;;;1.20;;
13335;SDS011;6737;51.480;11.962;2023-04-01T01:18:49;4.73;;;1.10;;
13335;SDS011;6737;51.480;11.962;2023-04-01T01:27:11;4.67;;;1.37;;
13335;SDS011;6737;51.480;11.962;2023-04-01T01:38:11;3.10;;;0.97;;
13335;SDS011;6737;51.480;11.962;2023-04-01T01:40:39;4.73;;;1.30;;
13335;SDS011;6737;51.480;11.962;2023-04-01T01:43:09;2.67;;;1.10;;
13335;SDS011;6737;51.480;11.962;2023-04-01T01:45:39;4.40;;;1.20;;
13335;SDS011;6737;51.480;11.962;2023-04-01T01:48:09;3.30;;;1.27;;
13335;SDS011;6737;51.480;11.962;2023-04-01T01:50:36;3.33;;;1.20;;
13335;SDS011;6737;51.480;11.962;2023-04-01T01:53:08;4.33;;;1.30;;
13335;SDS011;6737;51.480;11.962;2023-04-01T01:55:40;4.60;;;1.23;;
13335;SDS011;6737;51.480;11.962;2023-04-01T01:58:25;3.00;;;1.37;;
13335;SDS011;6737;51.480;11.962;2023-04-01T02:00:57;3.87;;;1.20;;
13335;SDS011;6737;51.480;11.962;2023-04-01T02:03:26;2.80;;;1.00;;
13335;SDS011;6737;51.480;11.962;2023-04-01T02:05:56;2.63;;;1.20;;
13335;SDS011;6737;51.480;11.962;2023-04-01T02:08:39;3.50;;;1.20;;
13335;SDS011;6737;51.480;11.962;2023-04-01T02:11:10;3.80;;;1.13;;
13335;SDS011;6737;51.480;11.962;2023-04-01T02:13:42;2.87;;;1.20;;
13335;SDS011;6737;51.480;11.962;2023-04-01T02:16:22;3.30;;;1.53;;
13335;SDS011;6737;51.480;11.962;2023-04-01T02:18:53;4.10;;;1.30;;
13335;SDS011;6737;51.480;11.962;2023-04-01T02:21:22;2.30;;;1.30;;
13335;SDS011;6737;51.480;11.962;2023-04-01T02:23:53;3.73;;;1.50;;
13335;SDS011;6737;51.480;11.962;2023-04-01T02:26:21;3.33;;;1.40;;
13335;SDS011;6737;51.480;11.962;2023-04-01T02:28:48;3.60;;;1.33;;
13335;SDS011;6737;51.480;11.962;2023-04-01T02:31:15;4.40;;;1.57;;
13335;SDS011;6737;51.480;11.962;2023-04-01T02:33:41;4.03;;;1.30;;
13335;SDS011;6737;51.480;11.962;2023-04-01T02:36:10;4.93;;;1.50;;
13335;SDS011;6737;51.480;11.962;2023-04-01T02:38:38;7.80;;;1.50;;
13335;SDS011;6737;51.480;11.962;2023-04-01T02:41:05;2.23;;;1.10;;
13335;SDS011;6737;51.480;11.962;2023-04-01T02:43:31;3.50;;;1.20;;
13335;SDS011;6737;51.480;11.962;2023-04-01T02:45:57;4.23;;;1.40;;
13335;SDS011;6737;51.480;11.962;2023-04-01T02:48:23;3.00;;;1.20;;
13335;SDS011;6737;51.480;11.962;2023-04-01T02:50:49;3.17;;;1.10;;
13335;SDS011;6737;51.480;11.962;2023-04-01T02:53:16;4.20;;;1.40;;
13335;SDS011;6737;51.480;11.962;2023-04-01T02:55:42;3.37;;;1.10;;
13335;SDS011;6737;51.480;11.962;2023-04-01T02:58:08;4.53;;;1.10;;
13335;SDS011;6737;51.480;11.962;2023-04-01T03:00:33;4.13;;;1.43;;
13335;SDS011;6737;51.480;11.962;2023-04-01T03:02:59;3.53;;;1.10;;
13335;SDS011;6737;51.480;11.962;2023-04-01T03:05:25;2.10;;;1.13;;
13335;SDS011;6737;51.480;11.962;2023-04-01T03:07:51;5.17;;;1.30;;
13335;SDS011;6737;51.480;11.962;2023-04-01T03:10:17;2.83;;;1.20;;
13335;SDS011;6737;51.480;11.962;2023-04-01T03:12:43;3.93;;;1.40;;
13335;SDS011;6737;51.480;11.962;2023-04-01T03:15:09;3.90;;;1.40;;
13335;SDS011;6737;51.480;11.962;2023-04-01T03:17:37;4.37;;;1.20;;
13335;SDS011;6737;51.480;11.962;2023-04-01T03:20:03;4.63;;;1.30;;
13335;SDS011;6737;51.480;11.962;2023-04-01T03:22:30;3.77;;;1.20;;
13335;SDS011;6737;51.480;11.962;2023-04-01T03:24:56;4.00;;;1.23;;
13335;SDS011;6737;51.480;11.962;2023-04-01T03:27:22;3.30;;;0.90;;
13335;SDS011;6737;51.480;11.962;2023-04-01T03:29:48;3.93;;;1.37;;
13335;SDS011;6737;51.480;11.962;2023-04-01T03:32:14;2.77;;;1.33;;
13335;SDS011;6737;51.480;11.962;2023-04-01T03:34:40;3.67;;;1.30;;
13335;SDS011;6737;51.480;11.962;2023-04-01T03:37:05;3.43;;;1.10;;
13335;SDS011;6737;51.480;11.962;2023-04-01T03:39:31;9.90;;;1.43;;
13335;SDS011;6737;51.480;11.962;2023-04-01T03:41:57;4.97;;;1.33;;
13335;SDS011;6737;51.480;11.962;2023-04-01T03:44:23;3.77;;;1.40;;
13335;SDS011;6737;51.480;11.962;2023-04-01T03:46:50;2.30;;;1.30;;
13335;SDS011;6737;51.480;11.962;2023-04-01T03:49:15;3.70;;;1.30;;
13335;SDS011;6737;51.480;11.962;2023-04-01T03:51:42;3.83;;;1.23;;
13335;SDS011;6737;51.480;11.962;2023-04-01T03:54:08;3.63;;;1.20;;
13335;SDS011;6737;51.480;11.962;2023-04-01T03:56:35;5.63;;;1.50;;
13335;SDS011;6737;51.480;11.962;2023-04-01T03:59:03;5.80;;;1.50;;
13335;SDS011;6737;51.480;11.962;2023-04-01T04:01:30;5.00;;;1.20;;
13335;SDS011;6737;51.480;11.962;2023-04-01T04:03:57;5.30;;;1.27;;
13335;SDS011;6737;51.480;11.962;2023-04-01T04:06:23;3.70;;;1.20;;
13335;SDS011;6737;51.480;11.962;2023-04-01T04:08:53;3.70;;;1.30;;
13335;SDS011;6737;51.480;11.962;2023-04-01T04:11:19;5.00;;;1.50;;
13335;SDS011;6737;51.480;11.962;2023-04-01T04:13:47;2.43;;;1.20;;
13335;SDS011;6737;51.480;11.962;2023-04-01T04:16:13;2.33;;;1.10;;
13335;SDS011;6737;51.480;11.962;2023-04-01T04:18:40;3.27;;;1.10;;
13335;SDS011;6737;51.480;11.962;2023-04-01T04:21:06;5.50;;;1.30;;
13335;SDS011;6737;51.480;11.962;2023-04-01T04:23:32;4.40;;;1.30;;
13335;SDS011;6737;51.480;11.962;2023-04-01T04:26:00;3.07;;;1.40;;
13335;SDS011;6737;51.480;11.962;2023-04-01T04:28:27;3.97;;;1.23;;
13335;SDS011;6737;51.480;11.962;2023-04-01T04:30:54;2.03;;;1.20;;
13335;SDS011;6737;51.480;11.962;2023-04-01T04:33:21;3.07;;;1.30;;
13335;SDS011;6737;51.480;11.962;2023-04-01T04:35:48;5.57;;;1.20;;
13335;SDS011;6737;51.480;11.962;2023-04-01T04:38:14;3.27;;;1.23;;
13335;SDS011;6737;51.480;11.962;2023-04-01T04:40:41;4.10;;;1.27;;
13335;SDS011;6737;51.480;11.962;2023-04-01T04:43:09;5.23;;;1.20;;
13335;SDS011;6737;51.480;11.962;2023-04-01T04:45:36;4.33;;;1.17;;
13335;SDS011;6737;51.480;11.962;2023-04-01T04:48:02;2.33;;;1.00;;
13335;SDS011;6737;51.480;11.962;2023-04-01T04:50:28;2.60;;;1.20;;
13335;SDS011;6737;51.480;11.962;2023-04-01T04:52:54;3.47;;;1.13;;
13335;SDS011;6737;51.480;11.962;2023-04-01T04:55:20;2.90;;;1.20;;
13335;SDS011;6737;51.480;11.962;2023-04-01T04:57:46;3.10;;;1.20;;
13335;SDS011;6737;51.480;11.962;2023-04-01T05:00:12;3.57;;;1.20;;
13335;SDS011;6737;51.480;11.962;2023-04-01T05:02:38;3.77;;;1.23;;
13335;SDS011;6737;51.480;11.962;2023-04-01T05:05:03;3.57;;;1.20;;
13335;SDS011;6737;51.480;11.962;2023-04-01T05:07:30;2.90;;;1.30;;
13335;SDS011;6737;51.480;11.962;2023-04-01T05:09:55;5.13;;;1.30;;
13335;SDS011;6737;51.480;11.962;2023-04-01T05:12:21;4.60;;;1.20;;
13335;SDS011;6737;51.480;11.962;2023-04-01T05:14:47;3.47;;;1.53;;
13335;SDS011;6737;51.480;11.962;2023-04-01T05:17:13;3.87;;;1.20;;
13335;SDS011;6737;51.480;11.962;2023-04-01T05:19:38;4.10;;;1.33;;
13335;SDS011;6737;51.480;11.962;2023-04-01T05:22:05;2.33;;;1.20;;
13335;SDS011;6737;51.480;11.962;2023-04-01T05:24:31;3.23;;;1.23;;
13335;SDS011;6737;51.480;11.962;2023-04-01T05:26:57;3.30;;;1.20;;
13335;SDS011;6737;51.480;11.962;2023-04-01T05:29:24;3.47;;;1.20;;
13335;SDS011;6737;51.480;11.962;2023-04-01T05:31:51;3.93;;;1.20;;
13335;SDS011;6737;51.480;11.962;2023-04-01T05:34:17;4.93;;;1.50;;
13335;SDS011;6737;51.480;11.962;2023-04-01T05:36:43;2.30;;;1.27;;
13335;SDS011;6737;51.480;11.962;2023-04-01T05:39:09;2.63;;;1.17;;
13335;SDS011;6737;51.480;11.962;2023-04-01T05:41:35;3.37;;;1.40;;
13335;SDS011;6737;51.480;11.962;2023-04-01T05:44:02;2.90;;;1.23;;
13335;SDS011;6737;51.480;11.962;2023-04-01T05:46:28;3.10;;;1.20;;
13335;SDS011;6737;51.480;11.962;2023-04-01T05:48:54;5.73;;;1.47;;
13335;SDS011;6737;51.480;11.962;2023-04-01T05:51:20;3.10;;;1.47;;
13335;SDS011;6737;51.480;11.962;2023-04-01T05:53:46;3.00;;;1.20;;
13335;SDS011;6737;51.480;11.962;2023-04-01T05:56:12;3.43;;;1.40;;
13335;SDS011;6737;51.480;11.962;2023-04-01T05:58:38;3.50;;;1.40;;
13335;SDS011;6737;51.480;11.962;2023-04-01T06:01:08;5.40;;;1.37;;
13335;SDS011;6737;51.480;11.962;2023-04-01T06:03:36;2.00;;;1.20;;
13335;SDS011;6737;51.480;11.962;2023-04-01T06:06:01;4.13;;;1.20;;
13335;SDS011;6737;51.480;11.962;2023-04-01T06:08:28;4.13;;;1.40;;
13335;SDS011;6737;51.480;11.962;2023-04-01T06:34:13;3.33;;;1.50;;
13335;SDS011;6737;51.480;11.962;2023-04-01T06:36:47;4.67;;;2.00;;
13335;SDS011;6737;51.480;11.962;2023-04-01T06:39:40;7.67;;;3.03;;
13335;SDS011;6737;51.480;11.962;2023-04-01T06:42:26;4.73;;;2.77;;
13335;SDS011;6737;51.480;11.962;2023-04-01T06:53:25;5.60;;;2.67;;
13335;SDS011;6737;51.480;11.962;2023-04-01T06:56:01;4.67;;;2.43;;
13335;SDS011;6737;51.480;11.962;2023-04-01T06:58:37;2.77;;;1.27;;
13335;SDS011;6737;51.480;11.962;2023-04-01T07:01:08;2.47;;;1.10;;
13335;SDS011;6737;51.480;11.962;2023-04-01T07:03:47;2.33;;;1.07;;
13335;SDS011;6737;51.480;11.962;2023-04-01T07:06:25;2.77;;;1.07;;
13335;SDS011;6737;51.480;11.962;2023-04-01T07:08:52;2.33;;;0.90;;
13335;SDS011;6737;51.480;11.962;2023-04-01T07:11:24;3.03;;;0.90;;
13335;SDS011;6737;51.480;11.962;2023-04-01T07:14:30;2.27;;;1.00;;
13335;SDS011;6737;51.480;11.962;2023-04-01T07:17:06;3.67;;;1.20;;
13335;SDS011;6737;51.480;11.962;2023-04-01T07:19:47;5.63;;;1.40;;
13335;SDS011;6737;51.480;11.962;2023-04-01T07:24:48;2.93;;;0.90;;
13335;SDS011;6737;51.480;11.962;2023-04-01T07:27:14;2.43;;;0.93;;
13335;SDS011;6737;51.480;11.962;2023-04-01T07:29:40;1.97;;;0.90;;
13335;SDS011;6737;51.480;11.962;2023-04-01T07:32:11;1.90;;;0.93;;
13335;SDS011;6737;51.480;11.962;2023-04-01T07:35:04;2.30;;;0.70;;
13335;SDS011;6737;51.480;11.962;2023-04-01T07:44:02;1.90;;;0.93;;
13335;SDS011;6737;51.480;11.962;2023-04-01T07:57:20;5.23;;;1.00;;
13335;SDS011;6737;51.480;11.962;2023-04-01T08:00:08;3.30;;;0.90;;
13335;SDS011;6737;51.480;11.962;2023-04-01T08:16:26;2.77;;;0.90;;
13335;SDS011;6737;51.480;11.962;2023-04-01T08:22:10;2.00;;;1.03;;
13335;SDS011;6737;51.480;11.962;2023-04-01T08:24:57;1.60;;;0.93;;
13335;SDS011;6737;51.480;11.962;2023-04-01T08:30:04;1.30;;;0.83;;
13335;SDS011;6737;51.480;11.962;2023-04-01T08:32:44;2.80;;;1.00;;
13335;SDS011;6737;51.480;11.962;2023-04-01T08:35:24;2.57;;;0.80;;
13335;SDS011;6737;51.480;11.962;2023-04-01T08:38:05;1.77;;;0.90;;
13335;SDS011;6737;51.480;11.962;2023-04-01T08:57:33;17.07;;;6.70;;
13335;SDS011;6737;51.480;11.962;2023-04-01T09:00:33;2.97;;;1.80;;
13335;SDS011;6737;51.480;11.962;2023-04-01T09:09:09;3.67;;;1.00;;
13335;SDS011;6737;51.480;11.962;2023-04-01T09:14:40;1.53;;;0.80;;
13335;SDS011;6737;51.480;11.962;2023-04-01T09:20:23;2.77;;;1.00;;
13335;SDS011;6737;51.480;11.962;2023-04-01T09:28:28;2.67;;;0.73;;
13335;SDS011;6737;51.480;11.962;2023-04-01T09:36:43;2.13;;;0.77;;
13335;SDS011;6737;51.480;11.962;2023-04-01T09:45:08;1.67;;;0.70;;
13335;SDS011;6737;51.480;11.962;2023-04-01T09:51:10;1.57;;;0.73;;
13335;SDS011;6737;51.480;11.962;2023-04-01T09:56:43;1.57;;;0.70;;
13335;SDS011;6737;51.480;11.962;2023-04-01T10:08:49;1.50;;;0.90;;
13335;SDS011;6737;51.480;11.962;2023-04-01T10:28:47;1.00;;;0.70;;
13335;SDS011;6737;51.480;11.962;2023-04-01T10:37:39;1.03;;;0.60;;
13335;SDS011;6737;51.480;11.962;2023-04-01T10:51:04;1.10;;;0.50;;
13335;SDS011;6737;51.480;11.962;2023-04-01T10:59:45;1.23;;;0.70;;
13335;SDS011;6737;51.480;11.962;2023-04-01T11:16:41;1.23;;;0.60;;
13335;SDS011;6737;51.480;11.962;2023-04-01T11:30:41;0.60;;;0.50;;
13335;SDS011;6737;51.480;11.962;2023-04-01T11:33:27;1.50;;;0.70;;
13335;SDS011;6737;51.480;11.962;2023-04-01T11:36:02;6.00;;;0.77;;
13335;SDS011;6737;51.480;11.962;2023-04-01T12:03:35;1.37;;;0.63;;
13335;SDS011;6737;51.480;11.962;2023-04-01T12:06:32;2.70;;;1.50;;
13335;SDS011;6737;51.480;11.962;2023-04-01T12:36:46;1.40;;;0.80;;
13335;SDS011;6737;51.480;11.962;2023-04-01T12:42:03;0.73;;;0.60;;
13335;SDS011;6737;51.480;11.962;2023-04-01T12:47:16;1.17;;;0.63;;
13335;SDS011;6737;51.480;11.962;2023-04-01T12:52:35;1.40;;;0.80;;
13335;SDS011;6737;51.480;11.962;2023-04-01T12:55:36;1.33;;;0.70;;
13335;SDS011;6737;51.480;11.962;2023-04-01T13:03:58;2.80;;;0.70;;
13335;SDS011;6737;51.480;11.962;2023-04-01T13:06:55;0.90;;;0.70;;
13335;SDS011;6737;51.480;11.962;2023-04-01T13:26:38;1.80;;;0.50;;
13335;SDS011;6737;51.480;11.962;2023-04-01T13:29:10;0.50;;;0.50;;
13335;SDS011;6737;51.480;11.962;2023-04-01T13:31:52;0.90;;;0.70;;
13335;SDS011;6737;51.480;11.962;2023-04-01T13:34:30;1.17;;;0.70;;
13335;SDS011;6737;51.480;11.962;2023-04-01T13:40:02;0.80;;;0.70;;
13335;SDS011;6737;51.480;11.962;2023-04-01T13:42:43;2.20;;;0.63;;
13335;SDS011;6737;51.480;11.962;2023-04-01T13:45:21;2.17;;;0.70;;
13335;SDS011;6737;51.480;11.962;2023-04-01T13:55:53;0.90;;;0.70;;
13335;SDS011;6737;51.480;11.962;2023-04-01T14:01:49;0.80;;;0.70;;
13335;SDS011;6737;51.480;11.962;2023-04-01T14:05:07;1.73;;;0.80;;
13335;SDS011;6737;51.480;11.962;2023-04-01T14:12:59;2.33;;;0.80;;
13335;SDS011;6737;51.480;11.962;2023-04-01T14:26:41;1.87;;;1.10;;
13335;SDS011;6737;51.480;11.962;2023-04-01T14:32:23;1.77;;;1.10;;
13335;SDS011;6737;51.480;11.962;2023-04-01T14:46:03;3.17;;;1.47;;
13335;SDS011;6737;51.480;11.962;2023-04-01T14:48:32;1.97;;;1.40;;
13335;SDS011;6737;51.480;11.962;2023-04-01T14:51:04;2.67;;;1.60;;
13335;SDS011;6737;51.480;11.962;2023-04-01T14:53:44;2.80;;;2.00;;
13335;SDS011;6737;51.480;11.962;2023-04-01T14:56:44;1.83;;;1.67;;
13335;SDS011;6737;51.480;11.962;2023-04-01T15:02:11;2.30;;;1.40;;
13335;SDS011;6737;51.480;11.962;2023-04-01T15:10:42;2.63;;;1.80;;
13335;SDS011;6737;51.480;11.962;2023-04-01T15:13:13;1.97;;;1.20;;
13335;SDS011;6737;51.480;11.962;2023-04-01T15:41:36;2.00;;;1.20;;
13335;SDS011;6737;51.480;11.962;2023-04-01T15:52:36;1.83;;;1.23;;
13335;SDS011;6737;51.480;11.962;2023-04-01T16:00:29;2.37;;;1.50;;
13335;SDS011;6737;51.480;11.962;2023-04-01T16:03:19;1.93;;;1.30;;
13335;SDS011;6737;51.480;11.962;2023-04-01T16:05:59;3.17;;;1.30;;
13335;SDS011;6737;51.480;11.962;2023-04-01T16:20:17;2.93;;;1.50;;
13335;SDS011;6737;51.480;11.962;2023-04-01T16:22:56;2.03;;;1.30;;
13335;SDS011;6737;51.480;11.962;2023-04-01T16:25:44;3.77;;;1.20;;
13335;SDS011;6737;51.480;11.962;2023-04-01T16:33:35;3.13;;;1.63;;
13335;SDS011;6737;51.480;11.962;2023-04-01T16:41:49;3.63;;;1.70;;
13335;SDS011;6737;51.480;11.962;2023-04-01T16:50:39;1.73;;;1.47;;
13335;SDS011;6737;51.480;11.962;2023-04-01T16:55:55;2.90;;;1.43;;
13335;SDS011;6737;51.480;11.962;2023-04-01T16:58:28;2.70;;;1.43;;
13335;SDS011;6737;51.480;11.962;2023-04-01T17:01:04;2.53;;;1.27;;
13335;SDS011;6737;51.480;11.962;2023-04-01T17:03:46;2.40;;;1.07;;
13335;SDS011;6737;51.480;11.962;2023-04-01T17:08:55;2.63;;;1.33;;
13335;SDS011;6737;51.480;11.962;2023-04-01T17:22:27;2.87;;;1.70;;
13335;SDS011;6737;51.480;11.962;2023-04-01T17:28:14;3.70;;;1.67;;
13335;SDS011;6737;51.480;11.962;2023-04-01T17:39:04;3.23;;;2.07;;
13335;SDS011;6737;51.480;11.962;2023-04-01T17:44:28;4.43;;;2.10;;
13335;SDS011;6737;51.480;11.962;2023-04-01T17:58:00;4.10;;;2.33;;
13335;SDS011;6737;51.480;11.962;2023-04-01T18:03:29;5.47;;;2.97;;
13335;SDS011;6737;51.480;11.962;2023-04-01T18:06:17;4.90;;;3.63;;
13335;SDS011;6737;51.480;11.962;2023-04-01T18:08:49;9.43;;;3.23;;
13335;SDS011;6737;51.480;11.962;2023-04-01T18:11:33;5.03;;;2.90;;
13335;SDS011;6737;51.480;11.962;2023-04-01T18:22:29;3.07;;;2.13;;
13335;SDS011;6737;51.480;11.962;2023-04-01T18:25:15;3.27;;;1.90;;
13335;SDS011;6737;51.480;11.962;2023-04-01T18:39:14;3.00;;;2.20;;
13335;SDS011;6737;51.480;11.962;2023-04-01T18:42:03;3.70;;;1.87;;
13335;SDS011;6737;51.480;11.962;2023-04-01T18:44:43;2.27;;;2.07;;
13335;SDS011;6737;51.480;11.962;2023-04-01T18:47:30;3.83;;;1.80;;
13335;SDS011;6737;51.480;11.962;2023-04-01T18:50:41;2.73;;;2.10;;
13335;SDS011;6737;51.480;11.962;2023-04-01T18:55:56;2.40;;;2.20;;
13335;SDS011;6737;51.480;11.962;2023-04-01T18:58:42;3.37;;;2.20;;
13335;SDS011;6737;51.480;11.962;2023-04-01T19:07:17;2.83;;;1.73;;
13335;SDS011;6737;51.480;11.962;2023-04-01T19:09:50;2.30;;;1.80;;
13335;SDS011;6737;51.480;11.962;2023-04-01T19:14:57;2.93;;;1.87;;
13335;SDS011;6737;51.480;11.962;2023-04-01T19:26:00;2.43;;;2.23;;
13335;SDS011;6737;51.480;11.962;2023-04-01T19:28:34;5.07;;;2.47;;
13335;SDS011;6737;51.480;11.962;2023-04-01T19:31:40;4.30;;;2.83;;
13335;SDS011;6737;51.480;11.962;2023-04-01T19:39:52;4.03;;;2.47;;
13335;SDS011;6737;51.480;11.962;2023-04-01T19:42:48;2.37;;;2.03;;
13335;SDS011;6737;51.480;11.962;2023-04-01T19:45:38;2.83;;;2.33;;
13335;SDS011;6737;51.480;11.962;2023-04-01T19:51:09;2.97;;;2.50;;
13335;SDS011;6737;51.480;11.962;2023-04-01T20:01:24;3.27;;;2.87;;
13335;SDS011;6737;51.480;11.962;2023-04-01T20:04:01;3.67;;;2.60;;
13335;SDS011;6737;51.480;11.962;2023-04-01T20:12:00;2.93;;;2.73;;
13335;SDS011;6737;51.480;11.962;2023-04-01T20:44:14;3.87;;;2.50;;
13335;SDS011;6737;51.480;11.962;2023-04-01T20:52:32;3.63;;;2.60;;
13335;SDS011;6737;51.480;11.962;2023-04-01T20:55:07;4.83;;;2.40;;
13335;SDS011;6737;51.480;11.962;2023-04-01T21:09:11;3.07;;;2.60;;
13335;SDS011;6737;51.480;11.962;2023-04-01T21:19:50;4.37;;;2.77;;
13335;SDS011;6737;51.480;11.962;2023-04-01T21:33:27;3.70;;;3.07;;
13335;SDS011;6737;51.480;11.962;2023-04-01T21:39:21;2.97;;;2.60;;
13335;SDS011;6737;51.480;11.962;2023-04-01T21:42:12;3.23;;;2.70;;
13335;SDS011;6737;51.480;11.962;2023-04-01T21:50:19;4.00;;;2.87;;
13335;SDS011;6737;51.480;11.962;2023-04-01T21:53:26;2.70;;;2.50;;
13335;SDS011;6737;51.480;11.962;2023-04-01T21:56:03;2.77;;;2.43;;
13335;SDS011;6737;51.480;11.962;2023-04-01T22:07:19;2.93;;;2.60;;
13335;SDS011;6737;51.480;11.962;2023-04-01T22:23:37;3.30;;;3.00;;
13335;SDS011;6737;51.480;11.962;2023-04-01T22:26:23;3.37;;;3.03;;
13335;SDS011;6737;51.480;11.962;2023-04-01T22:29:10;3.37;;;3.03;;
13335;SDS011;6737;51.480;11.962;2023-04-01T22:31:55;3.60;;;3.30;;
13335;SDS011;6737;51.480;11.962;2023-04-01T22:37:16;3.80;;;3.10;;
13335;SDS011;6737;51.480;11.962;2023-04-01T22:42:53;4.30;;;3.23;;
13335;SDS011;6737;51.480;11.962;2023-04-01T22:48:09;3.83;;;3.43;;
13335;SDS011;6737;51.480;11.962;2023-04-01T22:50:55;3.63;;;3.33;;
13335;SDS011;6737;51.480;11.962;2023-04-01T22:56:19;3.73;;;3.33;;
13335;SDS011;6737;51.480;11.962;2023-04-01T22:58:57;3.67;;;3.37;;
13335;SDS011;6737;51.480;11.962;2023-04-01T23:01:54;3.40;;;3.10;;
13335;SDS011;6737;51.480;11.962;2023-04-01T23:04:27;3.57;;;3.13;;
13335;SDS011;6737;51.480;11.962;2023-04-01T23:06:59;3.80;;;2.90;;
13335;SDS011;6737;51.480;11.962;2023-04-01T23:09:33;4.43;;;3.47;;
13335;SDS011;6737;51.480;11.962;2023-04-01T23:12:05;3.77;;;3.37;;
13335;SDS011;6737;51.480;11.962;2023-04-01T23:14:43;3.37;;;2.80;;
13335;SDS011;6737;51.480;11.962;2023-04-01T23:22:57;3.87;;;3.20;;
13335;SDS011;6737;51.480;11.962;2023-04-01T23:33:10;4.50;;;3.10;;
13335;SDS011;6737;51.480;11.962;2023-04-01T23:36:11;3.67;;;3.03;;
13335;SDS011;6737;51.480;11.962;2023-04-01T23:38:41;4.03;;;3.10;;
13335;SDS011;6737;51.480;11.962;2023-04-01T23:41:22;3.00;;;2.70;;
13335;SDS011;6737;51.480;11.962;2023-04-01T23:44:00;3.00;;;2.70;;
13335;SDS011;6737;51.480;11.962;2023-04-01T23:46:29;3.37;;;2.60;;
13335;SDS011;6737;51.480;11.962;2023-04-01T23:48:57;2.93;;;2.60;;
13335;SDS011;6737;51.480;11.962;2023-04-01T23:51:27;2.70;;;2.40;;
13335;SDS011;6737;51.480;11.962;2023-04-01T23:54:47;2.80;;;2.50;;
13335;SDS011;6737;51.480;11.962;2023-04-01T23:56:48;3.30;;;2.73;;
13335;SDS011;6737;51.480;11.962;2023-04-01T23:59:17;3.20;;;2.60;;
